sensor_id;sensor_type;location;lat;lon;timestamp;pressure;altitude;pressure_sealevel;temperature;humidity
66486;BME280;53303;47.476;8.084;2023-11-19T00:01:04;95501.91;;;18.49;47.30
66486;BME280;53303;47.476;8.084;2023-11-19T00:03:30;95508.66;;;18.48;47.46
66486;BME280;53303;47.476;8.084;2023-11-19T00:05:56;95510.44;;;18.51;47.50
66486;BME280;53303;47.476;8.084;2023-11-19T00:08:21;95508.16;;;18.44;47.43
66486;BME280;53303;47.476;8.084;2023-11-19T00:10:46;95501.16;;;18.49;47.45
66486;BME280;53303;47.476;8.084;2023-11-19T00:13:16;95515.47;;;18.53;47.34
66486;BME280;53303;47.476;8.084;2023-11-19T00:15:41;95506.69;;;18.54;47.41
66486;BME280;53303;47.476;8.084;2023-11-19T00:18:10;95494.63;;;18.52;47.49
66486;BME280;53303;47.476;8.084;2023-11-19T00:20:39;95491.59;;;18.50;47.38
66486;BME280;53303;47.476;8.084;2023-11-19T00:23:05;95482.06;;;18.51;47.23
66486;BME280;53303;47.476;8.084;2023-11-19T00:25:30;95468.50;;;18.47;47.44
66486;BME280;53303;47.476;8.084;2023-11-19T00:27:55;95491.63;;;18.55;47.54
66486;BME280;53303;47.476;8.084;2023-11-19T00:30:21;95487.34;;;18.54;47.49
66486;BME280;53303;47.476;8.084;2023-11-19T00:32:47;95476.53;;;18.51;47.49
66486;BME280;53303;47.476;8.084;2023-11-19T00:35:12;95456.16;;;18.48;47.73
66486;BME280;53303;47.476;8.084;2023-11-19T00:37:41;95439.06;;;18.38;47.33
66486;BME280;53303;47.476;8.084;2023-11-19T00:40:08;95455.69;;;18.55;47.54
66486;BME280;53303;47.476;8.084;2023-11-19T00:42:35;95451.94;;;18.53;47.67
66486;BME280;53303;47.476;8.084;2023-11-19T00:45:00;95433.03;;;18.40;47.71
66486;BME280;53303;47.476;8.084;2023-11-19T00:47:29;95445.66;;;18.58;47.67
66486;BME280;53303;47.476;8.084;2023-11-19T00:49:56;95440.88;;;18.58;47.72
66486;BME280;53303;47.476;8.084;2023-11-19T00:52:21;95438.09;;;18.53;47.85
66486;BME280;53303;47.476;8.084;2023-11-19T00:54:47;95460.72;;;18.57;47.94
66486;BME280;53303;47.476;8.084;2023-11-19T00:57:14;95449.41;;;18.55;47.84
66486;BME280;53303;47.476;8.084;2023-11-19T00:59:43;95447.69;;;18.57;47.76
66486;BME280;53303;47.476;8.084;2023-11-19T01:02:09;95434.13;;;18.59;47.90
66486;BME280;53303;47.476;8.084;2023-11-19T01:04:35;95443.66;;;18.58;47.86
66486;BME280;53303;47.476;8.084;2023-11-19T01:07:04;95452.97;;;18.61;47.88
66486;BME280;53303;47.476;8.084;2023-11-19T01:09:30;95435.38;;;18.58;47.93
66486;BME280;53303;47.476;8.084;2023-11-19T01:12:00;95431.84;;;18.58;47.99
66486;BME280;53303;47.476;8.084;2023-11-19T01:14:26;95440.66;;;18.62;47.93
66486;BME280;53303;47.476;8.084;2023-11-19T01:16:52;95447.16;;;18.59;47.94
66486;BME280;53303;47.476;8.084;2023-11-19T01:19:19;95427.56;;;18.51;48.05
66486;BME280;53303;47.476;8.084;2023-11-19T01:21:44;95425.56;;;18.57;47.98
66486;BME280;53303;47.476;8.084;2023-11-19T01:24:12;95428.84;;;18.61;47.99
66486;BME280;53303;47.476;8.084;2023-11-19T01:26:39;95421.06;;;18.60;47.97
66486;BME280;53303;47.476;8.084;2023-11-19T01:29:13;95435.63;;;18.60;48.03
66486;BME280;53303;47.476;8.084;2023-11-19T01:31:46;95427.59;;;18.62;47.93
66486;BME280;53303;47.476;8.084;2023-11-19T01:34:16;95420.31;;;18.59;48.16
66486;BME280;53303;47.476;8.084;2023-11-19T01:36:41;95409.00;;;18.57;47.99
66486;BME280;53303;47.476;8.084;2023-11-19T01:39:07;95410.25;;;18.62;48.09
66486;BME280;53303;47.476;8.084;2023-11-19T01:41:36;95401.97;;;18.62;48.03
66486;BME280;53303;47.476;8.084;2023-11-19T01:44:01;95402.72;;;18.62;48.10
66486;BME280;53303;47.476;8.084;2023-11-19T01:46:27;95406.75;;;18.61;47.99
66486;BME280;53303;47.476;8.084;2023-11-19T01:48:53;95401.47;;;18.63;48.18
66486;BME280;53303;47.476;8.084;2023-11-19T01:51:19;95402.22;;;18.64;48.23
66486;BME280;53303;47.476;8.084;2023-11-19T01:53:46;95405.75;;;18.64;48.11
66486;BME280;53303;47.476;8.084;2023-11-19T01:56:14;95403.00;;;18.64;48.11
66486;BME280;53303;47.476;8.084;2023-11-19T01:58:41;95400.72;;;18.63;48.17
66486;BME280;53303;47.476;8.084;2023-11-19T02:01:09;95389.16;;;18.64;48.28
66486;BME280;53303;47.476;8.084;2023-11-19T02:03:34;95389.66;;;18.63;48.23
66486;BME280;53303;47.476;8.084;2023-11-19T02:06:05;95393.44;;;18.65;48.33
66486;BME280;53303;47.476;8.084;2023-11-19T02:08:30;95387.91;;;18.65;48.19
66486;BME280;53303;47.476;8.084;2023-11-19T02:10:56;95396.19;;;18.65;48.22
66486;BME280;53303;47.476;8.084;2023-11-19T02:13:26;95388.66;;;18.66;48.29
66486;BME280;53303;47.476;8.084;2023-11-19T02:15:52;95385.63;;;18.64;48.22
66486;BME280;53303;47.476;8.084;2023-11-19T02:20:48;95376.59;;;18.58;48.19
66486;BME280;53303;47.476;8.084;2023-11-19T02:23:14;95385.38;;;18.62;48.30
66486;BME280;53303;47.476;8.084;2023-11-19T02:25:40;95403.00;;;18.64;48.22
66486;BME280;53303;47.476;8.084;2023-11-19T02:28:08;95402.47;;;18.66;48.48
66486;BME280;53303;47.476;8.084;2023-11-19T02:30:33;95405.47;;;18.62;48.26
66486;BME280;53303;47.476;8.084;2023-11-19T02:32:59;95400.47;;;18.67;48.41
66486;BME280;53303;47.476;8.084;2023-11-19T02:35:28;95397.69;;;18.61;48.42
66486;BME280;53303;47.476;8.084;2023-11-19T02:37:57;95406.75;;;18.67;48.31
66486;BME280;53303;47.476;8.084;2023-11-19T02:40:23;95389.66;;;18.63;48.37
66486;BME280;53303;47.476;8.084;2023-11-19T02:42:52;95388.16;;;18.62;48.37
66486;BME280;53303;47.476;8.084;2023-11-19T02:45:18;95390.66;;;18.60;48.40
66486;BME280;53303;47.476;8.084;2023-11-19T02:47:46;95398.44;;;18.61;48.48
66486;BME280;53303;47.476;8.084;2023-11-19T02:50:11;95419.34;;;18.68;48.42
66486;BME280;53303;47.476;8.084;2023-11-19T02:52:43;95419.34;;;18.68;48.45
66486;BME280;53303;47.476;8.084;2023-11-19T02:55:11;95422.59;;;18.67;48.54
66486;BME280;53303;47.476;8.084;2023-11-19T02:57:41;95407.00;;;18.63;48.58
66486;BME280;53303;47.476;8.084;2023-11-19T03:00:20;95417.31;;;18.69;48.50
66486;BME280;53303;47.476;8.084;2023-11-19T03:02:52;95408.50;;;18.64;48.56
66486;BME280;53303;47.476;8.084;2023-11-19T03:05:44;95410.00;;;18.65;48.60
66486;BME280;53303;47.476;8.084;2023-11-19T03:08:10;95397.19;;;18.62;48.70
66486;BME280;53303;47.476;8.084;2023-11-19T03:10:40;95407.25;;;18.65;48.63
66486;BME280;53303;47.476;8.084;2023-11-19T03:13:08;95400.22;;;18.64;48.62
66486;BME280;53303;47.476;8.084;2023-11-19T03:15:38;95380.84;;;18.59;48.84
66486;BME280;53303;47.476;8.084;2023-11-19T03:18:03;95392.69;;;18.65;48.66
66486;BME280;53303;47.476;8.084;2023-11-19T03:20:29;95392.69;;;18.65;48.32
66486;BME280;53303;47.476;8.084;2023-11-19T03:22:59;95379.34;;;18.63;48.70
66486;BME280;53303;47.476;8.084;2023-11-19T03:25:27;95385.16;;;18.71;48.60
66486;BME280;53303;47.476;8.084;2023-11-19T03:27:58;95382.84;;;18.58;49.05
66486;BME280;53303;47.476;8.084;2023-11-19T03:30:24;95374.06;;;18.60;48.66
66486;BME280;53303;47.476;8.084;2023-11-19T03:32:52;95377.09;;;18.68;48.79
66486;BME280;53303;47.476;8.084;2023-11-19T03:35:17;95369.06;;;18.64;48.84
66486;BME280;53303;47.476;8.084;2023-11-19T03:37:45;95379.13;;;18.67;48.76
66486;BME280;53303;47.476;8.084;2023-11-19T03:40:11;95379.88;;;18.68;48.54
66486;BME280;53303;47.476;8.084;2023-11-19T03:42:36;95383.66;;;18.64;48.62
66486;BME280;53303;47.476;8.084;2023-11-19T03:45:02;95392.19;;;18.67;48.87
66486;BME280;53303;47.476;8.084;2023-11-19T03:47:30;95392.69;;;18.71;48.98
66486;BME280;53303;47.476;8.084;2023-11-19T03:49:59;95395.72;;;18.73;48.83
66486;BME280;53303;47.476;8.084;2023-11-19T03:52:26;95394.72;;;18.70;48.75
66486;BME280;53303;47.476;8.084;2023-11-19T03:54:52;95388.41;;;18.70;48.91
66486;BME280;53303;47.476;8.084;2023-11-19T03:57:20;95392.19;;;18.72;48.67
66486;BME280;53303;47.476;8.084;2023-11-19T03:59:50;95398.47;;;18.67;48.69
66486;BME280;53303;47.476;8.084;2023-11-19T04:02:16;95380.81;;;18.48;48.72
66486;BME280;53303;47.476;8.084;2023-11-19T04:04:42;95413.81;;;18.74;48.87
66486;BME280;53303;47.476;8.084;2023-11-19T04:07:07;95418.31;;;18.71;48.75
66486;BME280;53303;47.476;8.084;2023-11-19T04:09:35;95408.50;;;18.64;49.24
66486;BME280;53303;47.476;8.084;2023-11-19T04:12:03;95431.91;;;18.75;49.02
66486;BME280;53303;47.476;8.084;2023-11-19T04:14:29;95429.91;;;18.75;49.08
66486;BME280;53303;47.476;8.084;2023-11-19T04:16:54;95424.63;;;18.72;48.80
66486;BME280;53303;47.476;8.084;2023-11-19T04:19:20;95414.53;;;18.69;48.98
66486;BME280;53303;47.476;8.084;2023-11-19T04:21:46;95424.38;;;18.75;48.88
66486;BME280;53303;47.476;8.084;2023-11-19T04:24:12;95432.16;;;18.77;48.86
66486;BME280;53303;47.476;8.084;2023-11-19T04:26:44;95433.91;;;18.74;48.97
66486;BME280;53303;47.476;8.084;2023-11-19T04:29:14;95423.09;;;18.76;48.77
66486;BME280;53303;47.476;8.084;2023-11-19T04:31:43;95424.63;;;18.77;48.88
66486;BME280;53303;47.476;8.084;2023-11-19T04:34:09;95427.63;;;18.74;48.91
66486;BME280;53303;47.476;8.084;2023-11-19T04:36:34;95442.72;;;18.78;48.97
66486;BME280;53303;47.476;8.084;2023-11-19T04:39:03;95435.69;;;18.77;48.87
66486;BME280;53303;47.476;8.084;2023-11-19T04:41:35;95431.16;;;18.74;49.29
66486;BME280;53303;47.476;8.084;2023-11-19T04:44:01;95427.88;;;18.76;48.93
66486;BME280;53303;47.476;8.084;2023-11-19T04:46:30;95432.91;;;18.72;49.05
66486;BME280;53303;47.476;8.084;2023-11-19T04:48:55;95423.59;;;18.75;48.97
66486;BME280;53303;47.476;8.084;2023-11-19T04:51:21;95417.81;;;18.78;48.97
66486;BME280;53303;47.476;8.084;2023-11-19T04:53:46;95425.38;;;18.78;49.13
66486;BME280;53303;47.476;8.084;2023-11-19T04:56:12;95421.09;;;18.77;49.18
66486;BME280;53303;47.476;8.084;2023-11-19T04:58:42;95414.31;;;18.78;49.24
66486;BME280;53303;47.476;8.084;2023-11-19T05:01:13;95416.34;;;18.77;49.16
66486;BME280;53303;47.476;8.084;2023-11-19T05:03:40;95415.56;;;18.77;48.96
66486;BME280;53303;47.476;8.084;2023-11-19T05:06:07;95418.06;;;18.75;49.00
66486;BME280;53303;47.476;8.084;2023-11-19T05:08:35;95423.34;;;18.78;49.13
66486;BME280;53303;47.476;8.084;2023-11-19T05:11:00;95423.59;;;18.75;49.24
66486;BME280;53303;47.476;8.084;2023-11-19T05:13:26;95434.16;;;18.76;49.32
66486;BME280;53303;47.476;8.084;2023-11-19T05:15:54;95433.91;;;18.80;49.13
66486;BME280;53303;47.476;8.084;2023-11-19T05:18:19;95420.59;;;18.78;49.33
66486;BME280;53303;47.476;8.084;2023-11-19T05:20:47;95415.06;;;18.73;49.27
66486;BME280;53303;47.476;8.084;2023-11-19T05:23:13;95426.63;;;18.77;49.08
66486;BME280;53303;47.476;8.084;2023-11-19T05:25:38;95425.63;;;18.80;49.11
66486;BME280;53303;47.476;8.084;2023-11-19T05:28:04;95425.88;;;18.76;49.21
66486;BME280;53303;47.476;8.084;2023-11-19T05:30:33;95430.91;;;18.78;49.31
66486;BME280;53303;47.476;8.084;2023-11-19T05:32:58;95420.09;;;18.74;49.27
66486;BME280;53303;47.476;8.084;2023-11-19T05:35:23;95436.94;;;18.76;49.19
66486;BME280;53303;47.476;8.084;2023-11-19T05:37:49;95425.88;;;18.76;49.40
66486;BME280;53303;47.476;8.084;2023-11-19T05:40:15;95438.44;;;18.77;49.29
66486;BME280;53303;47.476;8.084;2023-11-19T05:42:41;95426.63;;;18.77;49.19
66486;BME280;53303;47.476;8.084;2023-11-19T05:45:07;95427.13;;;18.75;49.33
66486;BME280;53303;47.476;8.084;2023-11-19T05:47:33;95421.38;;;18.79;49.31
66486;BME280;53303;47.476;8.084;2023-11-19T05:49:59;95430.69;;;18.81;49.26
66486;BME280;53303;47.476;8.084;2023-11-19T05:52:24;95422.13;;;18.79;49.16
66486;BME280;53303;47.476;8.084;2023-11-19T05:54:49;95425.63;;;18.80;49.33
66486;BME280;53303;47.476;8.084;2023-11-19T05:57:17;95428.88;;;18.78;49.04
66486;BME280;53303;47.476;8.084;2023-11-19T05:59:49;95436.69;;;18.80;49.08
66486;BME280;53303;47.476;8.084;2023-11-19T06:02:17;95430.91;;;18.78;49.18
66486;BME280;53303;47.476;8.084;2023-11-19T06:04:44;95438.22;;;18.81;49.49
66486;BME280;53303;47.476;8.084;2023-11-19T06:07:13;95442.22;;;18.80;49.41
66486;BME280;53303;47.476;8.084;2023-11-19T06:09:38;95430.41;;;18.79;49.31
66486;BME280;53303;47.476;8.084;2023-11-19T06:12:05;95421.88;;;18.77;49.40
66486;BME280;53303;47.476;8.084;2023-11-19T06:14:32;95433.16;;;18.79;49.31
66486;BME280;53303;47.476;8.084;2023-11-19T06:17:00;95442.97;;;18.80;49.62
66486;BME280;53303;47.476;8.084;2023-11-19T06:19:26;95433.66;;;18.78;49.26
66486;BME280;53303;47.476;8.084;2023-11-19T06:21:52;95440.97;;;18.81;49.38
66486;BME280;53303;47.476;8.084;2023-11-19T06:24:17;95433.91;;;18.80;49.41
66486;BME280;53303;47.476;8.084;2023-11-19T06:26:42;95435.72;;;18.83;49.56
66486;BME280;53303;47.476;8.084;2023-11-19T06:29:08;95426.13;;;18.73;49.57
66486;BME280;53303;47.476;8.084;2023-11-19T06:31:33;95432.97;;;18.83;49.54
66486;BME280;53303;47.476;8.084;2023-11-19T06:33:59;95421.09;;;18.77;49.54
66486;BME280;53303;47.476;8.084;2023-11-19T06:36:24;95419.84;;;18.78;49.51
66486;BME280;53303;47.476;8.084;2023-11-19T06:38:52;95432.47;;;18.85;49.49
66486;BME280;53303;47.476;8.084;2023-11-19T06:41:18;95441.25;;;18.83;49.79
66486;BME280;53303;47.476;8.084;2023-11-19T06:43:43;95442.22;;;18.80;49.56
66486;BME280;53303;47.476;8.084;2023-11-19T06:46:16;95446.03;;;18.82;49.51
66486;BME280;53303;47.476;8.084;2023-11-19T06:48:42;95434.66;;;18.75;49.61
66486;BME280;53303;47.476;8.084;2023-11-19T06:51:09;95453.56;;;18.82;49.84
66486;BME280;53303;47.476;8.084;2023-11-19T06:53:34;95450.25;;;18.78;49.38
66486;BME280;53303;47.476;8.084;2023-11-19T06:56:01;95448.47;;;18.75;49.97
66486;BME280;53303;47.476;8.084;2023-11-19T06:58:30;95455.56;;;18.81;49.50
66486;BME280;53303;47.476;8.084;2023-11-19T07:00:56;95451.78;;;18.79;49.58
66486;BME280;53303;47.476;8.084;2023-11-19T07:03:23;95456.56;;;18.84;49.68
66486;BME280;53303;47.476;8.084;2023-11-19T07:05:49;95461.09;;;18.81;49.78
66486;BME280;53303;47.476;8.084;2023-11-19T07:08:17;95466.38;;;18.85;49.60
66486;BME280;53303;47.476;8.084;2023-11-19T07:10:43;95469.91;;;18.86;49.80
66486;BME280;53303;47.476;8.084;2023-11-19T07:13:08;95460.84;;;18.85;49.53
66486;BME280;53303;47.476;8.084;2023-11-19T07:15:36;95453.28;;;18.80;49.85
66486;BME280;53303;47.476;8.084;2023-11-19T07:18:02;95463.88;;;18.87;49.66
66486;BME280;53303;47.476;8.084;2023-11-19T07:20:28;95450.03;;;18.81;49.83
66486;BME280;53303;47.476;8.084;2023-11-19T07:22:53;95457.59;;;18.87;49.87
66486;BME280;53303;47.476;8.084;2023-11-19T07:25:20;95466.63;;;18.87;49.83
66486;BME280;53303;47.476;8.084;2023-11-19T07:27:48;95464.88;;;18.84;50.14
66486;BME280;53303;47.476;8.084;2023-11-19T07:30:14;95471.88;;;18.79;50.66
66486;BME280;53303;47.476;8.084;2023-11-19T07:32:39;95436.66;;;18.69;50.86
66486;BME280;53303;47.476;8.084;2023-11-19T07:35:05;95447.75;;;18.80;51.01
66486;BME280;53303;47.476;8.084;2023-11-19T07:37:31;95461.34;;;18.83;51.14
66486;BME280;53303;47.476;8.084;2023-11-19T07:39:58;95460.84;;;18.85;51.26
66486;BME280;53303;47.476;8.084;2023-11-19T07:42:24;95474.19;;;18.87;51.42
66486;BME280;53303;47.476;8.084;2023-11-19T07:44:49;95465.63;;;18.85;51.49
66486;BME280;53303;47.476;8.084;2023-11-19T07:47:14;95466.88;;;18.83;51.87
66486;BME280;53303;47.476;8.084;2023-11-19T07:49:42;95471.41;;;18.87;51.76
66486;BME280;53303;47.476;8.084;2023-11-19T07:52:11;95466.88;;;18.89;51.79
66486;BME280;53303;47.476;8.084;2023-11-19T07:54:36;95465.16;;;18.86;51.72
66486;BME280;53303;47.476;8.084;2023-11-19T07:57:04;95473.94;;;18.90;51.78
66486;BME280;53303;47.476;8.084;2023-11-19T07:59:30;95462.88;;;18.90;51.87
66486;BME280;53303;47.476;8.084;2023-11-19T08:01:55;95464.66;;;18.88;51.75
66486;BME280;53303;47.476;8.084;2023-11-19T08:04:21;95463.13;;;18.87;51.41
66486;BME280;53303;47.476;8.084;2023-11-19T08:06:46;95465.16;;;18.86;51.41
66486;BME280;53303;47.476;8.084;2023-11-19T08:09:11;95473.69;;;18.82;51.56
66486;BME280;53303;47.476;8.084;2023-11-19T08:11:43;95470.69;;;18.86;51.27
66486;BME280;53303;47.476;8.084;2023-11-19T08:14:09;95470.13;;;18.82;51.52
66486;BME280;53303;47.476;8.084;2023-11-19T08:16:34;95488.25;;;18.89;51.38
66486;BME280;53303;47.476;8.084;2023-11-19T08:18:59;95486.78;;;18.88;51.33
66486;BME280;53303;47.476;8.084;2023-11-19T08:21:25;95467.09;;;18.80;51.24
66486;BME280;53303;47.476;8.084;2023-11-19T08:23:52;95495.78;;;18.82;51.11
66486;BME280;53303;47.476;8.084;2023-11-19T08:26:17;95495.28;;;18.84;51.11
66486;BME280;53303;47.476;8.084;2023-11-19T08:28:43;95492.25;;;18.82;51.22
66486;BME280;53303;47.476;8.084;2023-11-19T08:31:08;95488.75;;;18.81;51.04
66486;BME280;53303;47.476;8.084;2023-11-19T08:33:34;95493.78;;;18.83;51.23
66486;BME280;53303;47.476;8.084;2023-11-19T08:35:59;95493.03;;;18.82;51.29
66486;BME280;53303;47.476;8.084;2023-11-19T08:38:25;95480.41;;;18.76;51.02
66486;BME280;53303;47.476;8.084;2023-11-19T08:40:51;95489.50;;;18.82;51.04
66486;BME280;53303;47.476;8.084;2023-11-19T08:43:17;95493.03;;;18.82;51.09
66486;BME280;53303;47.476;8.084;2023-11-19T08:45:45;95489.22;;;18.80;51.04
66486;BME280;53303;47.476;8.084;2023-11-19T08:48:10;95484.94;;;18.79;51.04
66486;BME280;53303;47.476;8.084;2023-11-19T08:50:35;95498.78;;;18.79;51.01
66486;BME280;53303;47.476;8.084;2023-11-19T08:53:03;95479.34;;;18.68;50.94
66486;BME280;53303;47.476;8.084;2023-11-19T08:55:31;95499.75;;;18.76;50.89
66486;BME280;53303;47.476;8.084;2023-11-19T08:57:57;95509.31;;;18.80;50.89
66486;BME280;53303;47.476;8.084;2023-11-19T09:00:23;95508.84;;;18.82;50.76
66486;BME280;53303;47.476;8.084;2023-11-19T09:02:48;95506.78;;;18.77;50.87
66486;BME280;53303;47.476;8.084;2023-11-19T09:05:14;95500.00;;;18.78;50.91
66486;BME280;53303;47.476;8.084;2023-11-19T09:07:41;95509.06;;;18.78;50.86
66486;BME280;53303;47.476;8.084;2023-11-19T09:10:07;95522.66;;;18.82;51.10
66486;BME280;53303;47.476;8.084;2023-11-19T09:12:34;95524.19;;;18.83;50.81
66486;BME280;53303;47.476;8.084;2023-11-19T09:14:59;95510.09;;;18.81;50.76
66486;BME280;53303;47.476;8.084;2023-11-19T09:17:25;95513.88;;;18.83;50.83
66486;BME280;53303;47.476;8.084;2023-11-19T09:19:50;95514.84;;;18.80;50.56
66486;BME280;53303;47.476;8.084;2023-11-19T09:22:15;95507.06;;;18.79;50.63
66486;BME280;53303;47.476;8.084;2023-11-19T09:24:41;95521.13;;;18.81;50.88
66486;BME280;53303;47.476;8.084;2023-11-19T09:27:10;95517.13;;;18.82;50.61
66486;BME280;53303;47.476;8.084;2023-11-19T09:29:35;95509.06;;;18.78;50.73
66486;BME280;53303;47.476;8.084;2023-11-19T09:32:01;95515.59;;;18.81;50.53
66486;BME280;53303;47.476;8.084;2023-11-19T09:34:26;95519.91;;;18.82;50.61
66486;BME280;53303;47.476;8.084;2023-11-19T09:36:53;95505.53;;;18.78;50.66
66486;BME280;53303;47.476;8.084;2023-11-19T09:39:21;95507.56;;;18.77;50.65
66486;BME280;53303;47.476;8.084;2023-11-19T09:41:49;95510.56;;;18.79;50.45
66486;BME280;53303;47.476;8.084;2023-11-19T09:44:14;95505.03;;;18.79;50.73
66486;BME280;53303;47.476;8.084;2023-11-19T09:46:43;95495.72;;;18.77;50.69
66486;BME280;53303;47.476;8.084;2023-11-19T09:49:10;95506.63;;;18.86;50.42
66486;BME280;53303;47.476;8.084;2023-11-19T09:51:39;95504.56;;;18.81;50.58
66486;BME280;53303;47.476;8.084;2023-11-19T09:54:07;95499.75;;;18.76;50.56
66486;BME280;53303;47.476;8.084;2023-11-19T09:56:33;95510.09;;;18.81;50.71
66486;BME280;53303;47.476;8.084;2023-11-19T09:58:58;95509.28;;;18.75;50.62
66486;BME280;53303;47.476;8.084;2023-11-19T10:01:24;95508.56;;;18.80;50.76
66486;BME280;53303;47.476;8.084;2023-11-19T10:03:55;95517.66;;;18.86;50.33
66486;BME280;53303;47.476;8.084;2023-11-19T10:06:20;95505.53;;;18.78;50.58
66486;BME280;53303;47.476;8.084;2023-11-19T10:08:46;95512.59;;;18.79;50.52
66486;BME280;53303;47.476;8.084;2023-11-19T10:11:14;95521.13;;;18.81;50.50
66486;BME280;53303;47.476;8.084;2023-11-19T10:13:40;95516.84;;;18.80;50.24
66486;BME280;53303;47.476;8.084;2023-11-19T10:16:08;95532.25;;;18.87;50.47
66486;BME280;53303;47.476;8.084;2023-11-19T10:18:34;95535.50;;;18.85;50.77
66486;BME280;53303;47.476;8.084;2023-11-19T10:21:04;95521.63;;;18.79;50.42
66486;BME280;53303;47.476;8.084;2023-11-19T10:24:05;95531.41;;;18.80;50.49
66486;BME280;53303;47.476;8.084;2023-11-19T10:26:30;95531.22;;;18.84;50.56
66486;BME280;53303;47.476;8.084;2023-11-19T10:28:56;95513.31;;;18.74;50.61
66486;BME280;53303;47.476;8.084;2023-11-19T10:31:22;95514.09;;;18.80;50.56
66486;BME280;53303;47.476;8.084;2023-11-19T10:33:53;95520.94;;;18.85;50.60
66486;BME280;53303;47.476;8.084;2023-11-19T10:36:19;95525.97;;;18.86;50.54
66486;BME280;53303;47.476;8.084;2023-11-19T10:38:55;95525.69;;;18.84;50.53
66486;BME280;53303;47.476;8.084;2023-11-19T10:41:31;95529.72;;;18.83;50.56
66486;BME280;53303;47.476;8.084;2023-11-19T10:43:58;95512.38;;;18.82;50.44
66486;BME280;53303;47.476;8.084;2023-11-19T10:46:39;95503.31;;;18.82;50.52
66486;BME280;53303;47.476;8.084;2023-11-19T10:49:08;95510.09;;;18.81;50.50
66486;BME280;53303;47.476;8.084;2023-11-19T10:51:34;95515.41;;;18.85;50.57
66486;BME280;53303;47.476;8.084;2023-11-19T10:54:04;95496.53;;;18.83;50.57
66486;BME280;53303;47.476;8.084;2023-11-19T10:56:34;95495.28;;;18.84;50.73
66486;BME280;53303;47.476;8.084;2023-11-19T10:59:01;95507.59;;;18.83;50.44
66486;BME280;53303;47.476;8.084;2023-11-19T11:01:33;95502.59;;;18.87;50.69
66486;BME280;53303;47.476;8.084;2023-11-19T11:04:01;95487.25;;;18.86;50.48
66486;BME280;53303;47.476;8.084;2023-11-19T11:06:30;95494.53;;;18.83;50.63
66486;BME280;53303;47.476;8.084;2023-11-19T11:08:56;95497.78;;;18.82;50.69
66486;BME280;53303;47.476;8.084;2023-11-19T11:11:22;95494.53;;;18.83;50.78
66486;BME280;53303;47.476;8.084;2023-11-19T11:13:49;95470.56;;;18.63;50.76
66486;BME280;53303;47.476;8.084;2023-11-19T11:16:18;95485.47;;;18.83;50.62
66486;BME280;53303;47.476;8.084;2023-11-19T11:18:47;95476.91;;;18.81;50.86
66486;BME280;53303;47.476;8.084;2023-11-19T11:21:17;95479.66;;;18.81;50.64
66486;BME280;53303;47.476;8.084;2023-11-19T11:29:10;95491.75;;;18.83;50.76
66486;BME280;53303;47.476;8.084;2023-11-19T11:39:39;95456.31;;;18.82;51.13
66486;BME280;53303;47.476;8.084;2023-11-19T11:42:30;95468.41;;;18.85;50.87
66486;BME280;53303;47.476;8.084;2023-11-19T11:50:11;95448.78;;;18.82;50.77
66486;BME280;53303;47.476;8.084;2023-11-19T11:57:56;95449.78;;;18.85;50.83
66486;BME280;53303;47.476;8.084;2023-11-19T12:00:30;95437.22;;;18.84;50.84
66486;BME280;53303;47.476;8.084;2023-11-19T12:02:59;95442.78;;;18.90;50.87
66486;BME280;53303;47.476;8.084;2023-11-19T12:05:25;95437.25;;;18.90;50.86
66486;BME280;53303;47.476;8.084;2023-11-19T12:10:24;95430.44;;;18.91;50.93
66486;BME280;53303;47.476;8.084;2023-11-19T12:12:52;95424.19;;;18.90;50.72
66486;BME280;53303;47.476;8.084;2023-11-19T12:15:18;95421.91;;;18.89;50.87
66486;BME280;53303;47.476;8.084;2023-11-19T12:17:51;95417.63;;;18.82;50.89
66486;BME280;53303;47.476;8.084;2023-11-19T12:20:21;95429.47;;;18.88;50.74
66486;BME280;53303;47.476;8.084;2023-11-19T12:22:47;95422.66;;;18.89;50.88
66486;BME280;53303;47.476;8.084;2023-11-19T12:25:15;95417.41;;;18.91;50.93
66486;BME280;53303;47.476;8.084;2023-11-19T12:27:49;95418.66;;;18.90;50.78
66486;BME280;53303;47.476;8.084;2023-11-19T12:30:24;95428.72;;;18.93;51.00
66486;BME280;53303;47.476;8.084;2023-11-19T12:32:56;95432.47;;;18.96;50.89
66486;BME280;53303;47.476;8.084;2023-11-19T12:35:22;95425.69;;;18.91;51.06
66486;BME280;53303;47.476;8.084;2023-11-19T12:37:52;95438.00;;;18.96;51.12
66486;BME280;53303;47.476;8.084;2023-11-19T12:40:22;95436.28;;;18.98;50.87
66486;BME280;53303;47.476;8.084;2023-11-19T12:42:48;95424.69;;;18.94;50.86
66486;BME280;53303;47.476;8.084;2023-11-19T12:45:14;95425.47;;;19.00;50.80
66486;BME280;53303;47.476;8.084;2023-11-19T12:47:42;95410.34;;;18.96;51.07
66486;BME280;53303;47.476;8.084;2023-11-19T12:50:08;95415.91;;;19.01;50.72
66486;BME280;53303;47.476;8.084;2023-11-19T12:52:40;95417.41;;;19.02;50.97
66486;BME280;53303;47.476;8.084;2023-11-19T12:55:24;95420.44;;;18.99;51.05
66486;BME280;53303;47.476;8.084;2023-11-19T12:57:50;95417.16;;;19.00;50.90
66486;BME280;53303;47.476;8.084;2023-11-19T13:00:21;95423.69;;;19.03;50.85
66486;BME280;53303;47.476;8.084;2023-11-19T13:02:51;95430.75;;;19.04;50.84
66486;BME280;53303;47.476;8.084;2023-11-19T13:05:30;95427.72;;;19.02;50.76
66486;BME280;53303;47.476;8.084;2023-11-19T13:08:08;95422.19;;;19.02;50.76
66486;BME280;53303;47.476;8.084;2023-11-19T13:13:15;95429.22;;;19.03;50.82
66486;BME280;53303;47.476;8.084;2023-11-19T13:15:40;95425.22;;;18.98;51.05
66486;BME280;53303;47.476;8.084;2023-11-19T13:18:05;95419.44;;;19.02;51.11
66486;BME280;53303;47.476;8.084;2023-11-19T13:20:34;95419.69;;;19.04;50.73
66486;BME280;53303;47.476;8.084;2023-11-19T13:23:01;95408.63;;;19.04;51.15
66486;BME280;53303;47.476;8.084;2023-11-19T13:25:28;95430.50;;;19.08;50.87
66486;BME280;53303;47.476;8.084;2023-11-19T13:27:54;95424.47;;;19.09;50.96
66486;BME280;53303;47.476;8.084;2023-11-19T13:30:20;95419.44;;;19.02;50.76
66486;BME280;53303;47.476;8.084;2023-11-19T13:32:48;95429.47;;;19.11;50.99